sensor_id;sensor_type;location;lat;lon;timestamp;pressure;altitude;pressure_sealevel;temperature;humidity
58473;BME280;44775;51.564;5.460;2023-05-17T00:01:22;102179.84;;;5.94;100.00
58473;BME280;44775;51.564;5.460;2023-05-17T00:03:47;102184.69;;;5.87;100.00
58473;BME280;44775;51.564;5.460;2023-05-17T00:06:13;102183.94;;;5.85;100.00
58473;BME280;44775;51.564;5.460;2023-05-17T00:08:38;102179.19;;;5.77;100.00
58473;BME280;44775;51.564;5.460;2023-05-17T00:11:03;102193.59;;;5.86;100.00
58473;BME280;44775;51.564;5.460;2023-05-17T00:13:28;102197.31;;;5.83;100.00
58473;BME280;44775;51.564;5.460;2023-05-17T00:15:54;102196.59;;;5.81;100.00
58473;BME280;44775;51.564;5.460;2023-05-17T00:18:19;102195.81;;;5.79;100.00
58473;BME280;44775;51.564;5.460;2023-05-17T00:20:44;102196.16;;;5.75;100.00
58473;BME280;44775;51.564;5.460;2023-05-17T00:23:10;102186.59;;;5.72;100.00
58473;BME280;44775;51.564;5.460;2023-05-17T00:25:35;102197.19;;;5.72;100.00
58473;BME280;44775;51.564;5.460;2023-05-17T00:28:00;102191.25;;;5.68;100.00
58473;BME280;44775;51.564;5.460;2023-05-17T00:30:25;102189.75;;;5.64;100.00
58473;BME280;44775;51.564;5.460;2023-05-17T00:32:51;102192.50;;;5.63;100.00
58473;BME280;44775;51.564;5.460;2023-05-17T00:35:16;102194.44;;;5.61;100.00
58473;BME280;44775;51.564;5.460;2023-05-17T00:37:41;102192.06;;;5.56;100.00
58473;BME280;44775;51.564;5.460;2023-05-17T00:40:12;102190.38;;;5.55;100.00
58473;BME280;44775;51.564;5.460;2023-05-17T00:42:37;102181.47;;;5.56;100.00
58473;BME280;44775;51.564;5.460;2023-05-17T00:45:03;102180.72;;;5.54;100.00
58473;BME280;44775;51.564;5.460;2023-05-17T00:47:29;102168.19;;;5.56;100.00
58473;BME280;44775;51.564;5.460;2023-05-17T00:49:54;102179.44;;;5.60;100.00
58473;BME280;44775;51.564;5.460;2023-05-17T00:52:19;102184.84;;;5.45;100.00
58473;BME280;44775;51.564;5.460;2023-05-17T00:54:45;102183.78;;;5.48;100.00
58473;BME280;44775;51.564;5.460;2023-05-17T00:57:10;102188.78;;;5.53;100.00
58473;BME280;44775;51.564;5.460;2023-05-17T00:59:36;102180.19;;;5.49;100.00
58473;BME280;44775;51.564;5.460;2023-05-17T01:02:02;102183.34;;;5.41;100.00
58473;BME280;44775;51.564;5.460;2023-05-17T01:04:28;102180.50;;;5.44;100.00
58473;BME280;44775;51.564;5.460;2023-05-17T01:06:54;102180.06;;;5.38;100.00
58473;BME280;44775;51.564;5.460;2023-05-17T01:09:20;102187.88;;;5.39;100.00
58473;BME280;44775;51.564;5.460;2023-05-17T01:12:04;102190.53;;;5.39;100.00
58473;BME280;44775;51.564;5.460;2023-05-17T01:17:13;102173.34;;;5.32;100.00
58473;BME280;44775;51.564;5.460;2023-05-17T01:19:59;102176.63;;;5.23;100.00
58473;BME280;44775;51.564;5.460;2023-05-17T01:25:35;102191.84;;;5.47;100.00
58473;BME280;44775;51.564;5.460;2023-05-17T01:28:05;102184.88;;;5.58;100.00
58473;BME280;44775;51.564;5.460;2023-05-17T01:30:31;102187.75;;;5.68;100.00
58473;BME280;44775;51.564;5.460;2023-05-17T01:32:58;102202.41;;;5.86;100.00
58473;BME280;44775;51.564;5.460;2023-05-17T01:35:24;102190.84;;;5.87;100.00
58473;BME280;44775;51.564;5.460;2023-05-17T01:37:51;102178.22;;;5.91;100.00
58473;BME280;44775;51.564;5.460;2023-05-17T01:40:17;102183.63;;;5.89;100.00
58473;BME280;44775;51.564;5.460;2023-05-17T01:42:44;102174.53;;;5.94;100.00
58473;BME280;44775;51.564;5.460;2023-05-17T01:45:30;102181.94;;;5.88;100.00
58473;BME280;44775;51.564;5.460;2023-05-17T01:50:47;102185.34;;;6.16;100.00
58473;BME280;44775;51.564;5.460;2023-05-17T01:53:19;102179.09;;;6.17;100.00
58473;BME280;44775;51.564;5.460;2023-05-17T01:55:56;102179.28;;;6.14;100.00
58473;BME280;44775;51.564;5.460;2023-05-17T01:58:25;102174.22;;;6.11;100.00
58473;BME280;44775;51.564;5.460;2023-05-17T02:00:55;102182.69;;;6.03;100.00
58473;BME280;44775;51.564;5.460;2023-05-17T02:03:21;102186.09;;;6.05;100.00
58473;BME280;44775;51.564;5.460;2023-05-17T02:05:46;102190.66;;;6.16;100.00
58473;BME280;44775;51.564;5.460;2023-05-17T02:08:12;102193.09;;;6.06;100.00
58473;BME280;44775;51.564;5.460;2023-05-17T02:10:38;102180.25;;;6.00;100.00
58473;BME280;44775;51.564;5.460;2023-05-17T02:13:03;102177.09;;;6.08;100.00
58473;BME280;44775;51.564;5.460;2023-05-17T02:15:29;102187.81;;;6.06;100.00
58473;BME280;44775;51.564;5.460;2023-05-17T02:17:54;102188.09;;;5.89;100.00
58473;BME280;44775;51.564;5.460;2023-05-17T02:20:19;102178.22;;;5.78;100.00
58473;BME280;44775;51.564;5.460;2023-05-17T02:22:45;102184.69;;;5.74;100.00
58473;BME280;44775;51.564;5.460;2023-05-17T02:25:10;102182.84;;;5.62;100.00
58473;BME280;44775;51.564;5.460;2023-05-17T02:27:36;102180.19;;;5.49;100.00
58473;BME280;44775;51.564;5.460;2023-05-17T02:30:02;102181.34;;;5.45;100.00
58473;BME280;44775;51.564;5.460;2023-05-17T02:32:28;102183.16;;;5.44;100.00
58473;BME280;44775;51.564;5.460;2023-05-17T02:34:54;102183.03;;;5.46;100.00
58473;BME280;44775;51.564;5.460;2023-05-17T02:37:19;102192.91;;;5.44;100.00
58473;BME280;44775;51.564;5.460;2023-05-17T02:39:45;102198.09;;;5.45;100.00
58473;BME280;44775;51.564;5.460;2023-05-17T02:42:10;102193.63;;;5.33;100.00
58473;BME280;44775;51.564;5.460;2023-05-17T02:44:36;102206.03;;;5.45;100.00
58473;BME280;44775;51.564;5.460;2023-05-17T02:47:01;102201.72;;;5.44;100.00
58473;BME280;44775;51.564;5.460;2023-05-17T02:49:26;102196.19;;;5.48;100.00
58473;BME280;44775;51.564;5.460;2023-05-17T02:51:51;102199.09;;;5.57;100.00
58473;BME280;44775;51.564;5.460;2023-05-17T02:54:17;102199.09;;;5.57;100.00
58473;BME280;44775;51.564;5.460;2023-05-17T02:56:42;102198.44;;;5.54;100.00
58473;BME280;44775;51.564;5.460;2023-05-17T02:59:08;102190.06;;;5.60;100.00
58473;BME280;44775;51.564;5.460;2023-05-17T03:01:33;102202.91;;;5.66;100.00
58473;BME280;44775;51.564;5.460;2023-05-17T03:03:58;102204.63;;;5.67;100.00
58473;BME280;44775;51.564;5.460;2023-05-17T03:06:23;102218.97;;;5.77;100.00
58473;BME280;44775;51.564;5.460;2023-05-17T03:08:49;102209.28;;;5.76;100.00
58473;BME280;44775;51.564;5.460;2023-05-17T03:11:14;102195.72;;;5.68;100.00
58473;BME280;44775;51.564;5.460;2023-05-17T03:13:39;102210.78;;;5.80;100.00
58473;BME280;44775;51.564;5.460;2023-05-17T03:16:05;102216.50;;;5.87;100.00
58473;BME280;44775;51.564;5.460;2023-05-17T03:18:30;102226.28;;;5.86;100.00
58473;BME280;44775;51.564;5.460;2023-05-17T03:20:56;102228.47;;;5.94;100.00
58473;BME280;44775;51.564;5.460;2023-05-17T03:23:21;102223.16;;;5.94;100.00
58473;BME280;44775;51.564;5.460;2023-05-17T03:25:46;102222.72;;;6.00;100.00
58473;BME280;44775;51.564;5.460;2023-05-17T03:28:11;102215.63;;;6.01;100.00
58473;BME280;44775;51.564;5.460;2023-05-17T03:30:37;102224.75;;;6.09;100.00
58473;BME280;44775;51.564;5.460;2023-05-17T03:33:02;102223.16;;;6.07;100.00
58473;BME280;44775;51.564;5.460;2023-05-17T03:35:27;102212.44;;;6.08;100.00
58473;BME280;44775;51.564;5.460;2023-05-17T03:37:53;102222.84;;;6.11;100.00
58473;BME280;44775;51.564;5.460;2023-05-17T03:40:18;102234.63;;;6.20;100.00
58473;BME280;44775;51.564;5.460;2023-05-17T03:42:43;102242.91;;;6.15;100.00
58473;BME280;44775;51.564;5.460;2023-05-17T03:45:09;102240.59;;;6.11;100.00
58473;BME280;44775;51.564;5.460;2023-05-17T03:47:34;102240.78;;;6.08;100.00
58473;BME280;44775;51.564;5.460;2023-05-17T03:50:00;102244.69;;;6.02;100.00
58473;BME280;44775;51.564;5.460;2023-05-17T03:52:25;102237.28;;;5.95;100.00
58473;BME280;44775;51.564;5.460;2023-05-17T03:54:50;102241.91;;;5.91;100.00
58473;BME280;44775;51.564;5.460;2023-05-17T03:57:16;102247.13;;;5.93;100.00
58473;BME280;44775;51.564;5.460;2023-05-17T03:59:41;102252.22;;;5.96;100.00
58473;BME280;44775;51.564;5.460;2023-05-17T04:02:06;102249.00;;;5.90;100.00
58473;BME280;44775;51.564;5.460;2023-05-17T04:04:32;102257.97;;;6.02;100.00
58473;BME280;44775;51.564;5.460;2023-05-17T04:06:57;102258.19;;;5.99;100.00
58473;BME280;44775;51.564;5.460;2023-05-17T04:09:22;102258.38;;;5.96;100.00
58473;BME280;44775;51.564;5.460;2023-05-17T04:11:47;102251.38;;;5.95;100.00
58473;BME280;44775;51.564;5.460;2023-05-17T04:14:13;102256.00;;;5.91;100.00
58473;BME280;44775;51.564;5.460;2023-05-17T04:16:39;102252.34;;;5.94;100.00
58473;BME280;44775;51.564;5.460;2023-05-17T04:19:04;102256.94;;;5.90;100.00
58473;BME280;44775;51.564;5.460;2023-05-17T04:21:29;102260.78;;;5.86;100.00
58473;BME280;44775;51.564;5.460;2023-05-17T04:23:55;102257.91;;;5.89;100.00
58473;BME280;44775;51.564;5.460;2023-05-17T04:26:20;102262.25;;;5.78;100.00
58473;BME280;44775;51.564;5.460;2023-05-17T04:28:46;102266.72;;;5.77;100.00
58473;BME280;44775;51.564;5.460;2023-05-17T04:31:13;102265.88;;;5.89;100.00
58473;BME280;44775;51.564;5.460;2023-05-17T04:33:39;102268.34;;;5.93;100.00
58473;BME280;44775;51.564;5.460;2023-05-17T04:36:05;102284.06;;;5.96;100.00
58473;BME280;44775;51.564;5.460;2023-05-17T04:38:31;102278.66;;;5.97;100.00
58473;BME280;44775;51.564;5.460;2023-05-17T04:41:03;102281.22;;;5.99;100.00
58473;BME280;44775;51.564;5.460;2023-05-17T04:43:29;102282.63;;;6.04;100.00
58473;BME280;44775;51.564;5.460;2023-05-17T04:45:58;102286.41;;;6.00;100.00
58473;BME280;44775;51.564;5.460;2023-05-17T04:48:25;102296.31;;;6.11;100.00
58473;BME280;44775;51.564;5.460;2023-05-17T04:50:52;102294.72;;;6.08;100.00
58473;BME280;44775;51.564;5.460;2023-05-17T04:53:17;102292.94;;;6.22;100.00
58473;BME280;44775;51.564;5.460;2023-05-17T04:55:43;102298.66;;;6.28;100.00
58473;BME280;44775;51.564;5.460;2023-05-17T04:58:09;102308.22;;;6.44;100.00
58473;BME280;44775;51.564;5.460;2023-05-17T05:00:34;102314.16;;;6.47;100.00
58473;BME280;44775;51.564;5.460;2023-05-17T05:03:00;102314.38;;;6.57;100.00
58473;BME280;44775;51.564;5.460;2023-05-17T05:05:25;102305.16;;;6.62;100.00
58473;BME280;44775;51.564;5.460;2023-05-17T05:07:51;102311.94;;;6.79;100.00
58473;BME280;44775;51.564;5.460;2023-05-17T05:10:16;102316.81;;;6.85;100.00
58473;BME280;44775;51.564;5.460;2023-05-17T05:12:41;102319.78;;;6.94;100.00
58473;BME280;44775;51.564;5.460;2023-05-17T05:15:07;102321.78;;;7.03;100.00
58473;BME280;44775;51.564;5.460;2023-05-17T05:17:33;102332.91;;;7.08;100.00
58473;BME280;44775;51.564;5.460;2023-05-17T05:19:58;102332.06;;;7.20;100.00
58473;BME280;44775;51.564;5.460;2023-05-17T05:22:24;102333.09;;;7.30;100.00
58473;BME280;44775;51.564;5.460;2023-05-17T05:24:49;102333.22;;;7.29;100.00
58473;BME280;44775;51.564;5.460;2023-05-17T05:27:15;102336.84;;;7.52;100.00
58473;BME280;44775;51.564;5.460;2023-05-17T05:29:41;102341.13;;;7.66;100.00
58473;BME280;44775;51.564;5.460;2023-05-17T05:32:07;102340.41;;;7.88;100.00
58473;BME280;44775;51.564;5.460;2023-05-17T05:34:32;102336.84;;;8.00;100.00
58473;BME280;44775;51.564;5.460;2023-05-17T05:36:58;102344.88;;;8.22;100.00
58473;BME280;44775;51.564;5.460;2023-05-17T05:39:23;102350.78;;;8.39;100.00
58473;BME280;44775;51.564;5.460;2023-05-17T05:41:49;102341.34;;;8.57;100.00
58473;BME280;44775;51.564;5.460;2023-05-17T05:44:15;102349.28;;;8.81;100.00
58473;BME280;44775;51.564;5.460;2023-05-17T05:46:41;102352.91;;;9.03;100.00
58473;BME280;44775;51.564;5.460;2023-05-17T05:49:06;102351.06;;;9.26;100.00
58473;BME280;44775;51.564;5.460;2023-05-17T05:51:31;102360.72;;;9.60;100.00
58473;BME280;44775;51.564;5.460;2023-05-17T05:53:57;102363.56;;;9.80;100.00
58473;BME280;44775;51.564;5.460;2023-05-17T05:56:24;102361.03;;;10.10;100.00
58473;BME280;44775;51.564;5.460;2023-05-17T05:58:51;102363.88;;;10.30;100.00
58473;BME280;44775;51.564;5.460;2023-05-17T06:01:16;102379.50;;;10.55;100.00
58473;BME280;44775;51.564;5.460;2023-05-17T06:03:41;102380.63;;;10.74;100.00
58473;BME280;44775;51.564;5.460;2023-05-17T06:06:07;102381.31;;;11.06;100.00
58473;BME280;44775;51.564;5.460;2023-05-17T06:08:32;102388.63;;;11.35;100.00
58473;BME280;44775;51.564;5.460;2023-05-17T06:10:57;102396.03;;;11.62;100.00
58473;BME280;44775;51.564;5.460;2023-05-17T06:13:23;102388.78;;;11.93;100.00
58473;BME280;44775;51.564;5.460;2023-05-17T06:15:48;102401.19;;;12.33;100.00
58473;BME280;44775;51.564;5.460;2023-05-17T06:18:14;102401.75;;;12.46;98.89
58473;BME280;44775;51.564;5.460;2023-05-17T06:20:40;102407.19;;;12.74;93.53
58473;BME280;44775;51.564;5.460;2023-05-17T06:23:05;102407.19;;;12.74;89.99
58473;BME280;44775;51.564;5.460;2023-05-17T06:25:30;102404.34;;;12.75;89.81
58473;BME280;44775;51.564;5.460;2023-05-17T06:27:56;102422.69;;;12.90;88.38
58473;BME280;44775;51.564;5.460;2023-05-17T06:30:21;102414.00;;;13.06;87.69
58473;BME280;44775;51.564;5.460;2023-05-17T06:32:46;102423.28;;;13.31;79.81
58473;BME280;44775;51.564;5.460;2023-05-17T06:35:11;102429.03;;;13.36;79.74
58473;BME280;44775;51.564;5.460;2023-05-17T06:37:37;102429.16;;;13.44;77.78
58473;BME280;44775;51.564;5.460;2023-05-17T06:40:03;102426.88;;;13.49;73.97
58473;BME280;44775;51.564;5.460;2023-05-17T06:42:30;102432.09;;;13.51;75.38
58473;BME280;44775;51.564;5.460;2023-05-17T06:44:55;102428.19;;;13.63;76.41
58473;BME280;44775;51.564;5.460;2023-05-17T06:47:21;102440.34;;;13.39;75.66
58473;BME280;44775;51.564;5.460;2023-05-17T06:49:46;102435.88;;;13.58;74.62
58473;BME280;44775;51.564;5.460;2023-05-17T06:52:11;102440.59;;;13.74;70.75
58473;BME280;44775;51.564;5.460;2023-05-17T06:54:37;102435.03;;;14.03;69.28
58473;BME280;44775;51.564;5.460;2023-05-17T06:57:02;102434.88;;;14.22;68.01
58473;BME280;44775;51.564;5.460;2023-05-17T06:59:28;102434.94;;;14.30;61.32
58473;BME280;44775;51.564;5.460;2023-05-17T07:01:54;102439.94;;;14.61;62.04
58473;BME280;44775;51.564;5.460;2023-05-17T07:04:19;102433.25;;;14.47;59.27
58473;BME280;44775;51.564;5.460;2023-05-17T07:06:45;102448.34;;;14.58;61.13
58473;BME280;44775;51.564;5.460;2023-05-17T07:09:11;102440.28;;;14.58;60.66
58473;BME280;44775;51.564;5.460;2023-05-17T07:11:36;102452.84;;;14.75;61.94
58473;BME280;44775;51.564;5.460;2023-05-17T07:14:01;102442.50;;;14.62;63.64
58473;BME280;44775;51.564;5.460;2023-05-17T07:16:26;102445.94;;;14.19;59.17
58473;BME280;44775;51.564;5.460;2023-05-17T07:18:52;102453.28;;;13.81;61.95
58473;BME280;44775;51.564;5.460;2023-05-17T07:21:18;102448.75;;;13.82;65.03
58473;BME280;44775;51.564;5.460;2023-05-17T07:23:43;102457.66;;;14.00;61.19
58473;BME280;44775;51.564;5.460;2023-05-17T07:26:08;102452.31;;;14.18;65.76
58473;BME280;44775;51.564;5.460;2023-05-17T07:28:34;102450.91;;;14.14;66.46
58473;BME280;44775;51.564;5.460;2023-05-17T07:30:59;102455.75;;;14.10;64.39
58473;BME280;44775;51.564;5.460;2023-05-17T07:33:25;102459.44;;;13.91;64.81
58473;BME280;44775;51.564;5.460;2023-05-17T07:35:51;102467.16;;;14.22;66.64
58473;BME280;44775;51.564;5.460;2023-05-17T07:38:16;102476.69;;;14.34;61.83
58473;BME280;44775;51.564;5.460;2023-05-17T07:40:41;102469.47;;;14.35;67.48
58473;BME280;44775;51.564;5.460;2023-05-17T07:43:06;102467.78;;;14.52;58.04
58473;BME280;44775;51.564;5.460;2023-05-17T07:45:32;102470.00;;;14.56;66.13
58473;BME280;44775;51.564;5.460;2023-05-17T07:47:57;102477.13;;;14.48;64.46
58473;BME280;44775;51.564;5.460;2023-05-17T07:50:23;102478.31;;;14.63;62.89
58473;BME280;44775;51.564;5.460;2023-05-17T07:52:48;102480.34;;;15.13;57.99
58473;BME280;44775;51.564;5.460;2023-05-17T07:55:13;102485.94;;;15.20;52.97
58473;BME280;44775;51.564;5.460;2023-05-17T07:57:39;102490.38;;;15.63;51.86
58473;BME280;44775;51.564;5.460;2023-05-17T08:00:04;102489.47;;;15.80;55.94
58473;BME280;44775;51.564;5.460;2023-05-17T08:02:30;102493.00;;;15.73;49.88
58473;BME280;44775;51.564;5.460;2023-05-17T08:04:55;102499.38;;;15.72;49.18
58473;BME280;44775;51.564;5.460;2023-05-17T08:07:21;102493.00;;;15.47;48.76
58473;BME280;44775;51.564;5.460;2023-05-17T08:09:46;102488.25;;;15.75;56.72
58473;BME280;44775;51.564;5.460;2023-05-17T08:12:11;102501.81;;;15.91;55.02
58473;BME280;44775;51.564;5.460;2023-05-17T08:14:38;102501.22;;;16.14;52.81
58473;BME280;44775;51.564;5.460;2023-05-17T08:17:03;102500.72;;;16.35;53.40
58473;BME280;44775;51.564;5.460;2023-05-17T08:19:29;102498.56;;;16.63;53.07
58473;BME280;44775;51.564;5.460;2023-05-17T08:21:54;102491.16;;;16.65;51.19
58473;BME280;44775;51.564;5.460;2023-05-17T08:24:20;102511.38;;;16.52;44.62
58473;BME280;44775;51.564;5.460;2023-05-17T08:26:45;102501.34;;;16.04;48.80
58473;BME280;44775;51.564;5.460;2023-05-17T08:29:10;102505.31;;;15.49;47.32
58473;BME280;44775;51.564;5.460;2023-05-17T08:31:36;102496.75;;;15.62;47.15
58473;BME280;44775;51.564;5.460;2023-05-17T08:34:01;102499.75;;;15.85;51.16
58473;BME280;44775;51.564;5.460;2023-05-17T08:36:27;102508.22;;;15.90;49.42
58473;BME280;44775;51.564;5.460;2023-05-17T08:38:52;102501.53;;;15.68;46.73
58473;BME280;44775;51.564;5.460;2023-05-17T08:41:18;102500.91;;;15.82;55.78
58473;BME280;44775;51.564;5.460;2023-05-17T08:43:45;102505.22;;;16.10;44.98
58473;BME280;44775;51.564;5.460;2023-05-17T08:46:11;102510.19;;;16.31;44.71
58473;BME280;44775;51.564;5.460;2023-05-17T08:48:40;102498.38;;;16.56;43.52
58473;BME280;44775;51.564;5.460;2023-05-17T08:51:07;102508.72;;;16.77;49.43
58473;BME280;44775;51.564;5.460;2023-05-17T08:53:34;102493.53;;;16.76;51.47
58473;BME280;44775;51.564;5.460;2023-05-17T08:56:01;102505.47;;;17.14;45.05
58473;BME280;44775;51.564;5.460;2023-05-17T08:58:33;102500.75;;;17.25;53.46
58473;BME280;44775;51.564;5.460;2023-05-17T09:00:58;102504.06;;;17.43;46.02
58473;BME280;44775;51.564;5.460;2023-05-17T09:03:24;102512.66;;;17.94;40.70
58473;BME280;44775;51.564;5.460;2023-05-17T09:05:51;102515.91;;;18.21;39.35
58473;BME280;44775;51.564;5.460;2023-05-17T09:08:21;102498.19;;;18.41;47.10
58473;BME280;44775;51.564;5.460;2023-05-17T09:10:47;102502.59;;;18.11;45.61
58473;BME280;44775;51.564;5.460;2023-05-17T09:13:13;102512.91;;;17.68;43.41
58473;BME280;44775;51.564;5.460;2023-05-17T09:15:42;102519.53;;;17.65;42.67
58473;BME280;44775;51.564;5.460;2023-05-17T09:18:09;102510.81;;;17.94;46.11
58473;BME280;44775;51.564;5.460;2023-05-17T09:20:36;102506.59;;;18.23;42.67
58473;BME280;44775;51.564;5.460;2023-05-17T09:23:04;102510.91;;;18.09;50.11
58473;BME280;44775;51.564;5.460;2023-05-17T09:25:31;102507.91;;;18.27;46.21
58473;BME280;44775;51.564;5.460;2023-05-17T09:28:01;102520.03;;;18.08;44.51
58473;BME280;44775;51.564;5.460;2023-05-17T09:30:31;102513.50;;;17.55;45.54
58473;BME280;44775;51.564;5.460;2023-05-17T09:32:57;102518.25;;;17.45;49.83
58473;BME280;44775;51.564;5.460;2023-05-17T09:35:27;102514.13;;;17.65;49.96
58473;BME280;44775;51.564;5.460;2023-05-17T09:37:56;102525.16;;;17.95;40.99
58473;BME280;44775;51.564;5.460;2023-05-17T09:40:27;102513.69;;;18.24;49.21
58473;BME280;44775;51.564;5.460;2023-05-17T09:42:54;102510.16;;;18.15;50.05
58473;BME280;44775;51.564;5.460;2023-05-17T09:45:22;102504.38;;;18.27;48.05
58473;BME280;44775;51.564;5.460;2023-05-17T09:47:48;102509.25;;;18.54;45.05
58473;BME280;44775;51.564;5.460;2023-05-17T09:50:18;102508.41;;;18.54;39.66
58473;BME280;44775;51.564;5.460;2023-05-17T09:52:43;102505.63;;;18.39;48.23
58473;BME280;44775;51.564;5.460;2023-05-17T09:55:09;102503.34;;;18.28;49.47
58473;BME280;44775;51.564;5.460;2023-05-17T09:57:39;102511.25;;;18.60;39.19
58473;BME280;44775;51.564;5.460;2023-05-17T10:00:07;102505.19;;;18.96;46.84
58473;BME280;44775;51.564;5.460;2023-05-17T10:02:37;102513.19;;;19.27;44.89
58473;BME280;44775;51.564;5.460;2023-05-17T10:05:08;102504.50;;;19.17;46.49
58473;BME280;44775;51.564;5.460;2023-05-17T10:07:36;102506.16;;;19.18;46.89
58473;BME280;44775;51.564;5.460;2023-05-17T10:10:02;102514.94;;;18.59;44.16
58473;BME280;44775;51.564;5.460;2023-05-17T10:12:27;102511.13;;;18.00;44.28
58473;BME280;44775;51.564;5.460;2023-05-17T10:14:58;102515.28;;;17.71;45.55
58473;BME280;44775;51.564;5.460;2023-05-17T10:17:25;102514.44;;;17.70;39.40
58473;BME280;44775;51.564;5.460;2023-05-17T10:19:54;102526.28;;;18.09;44.39
58473;BME280;44775;51.564;5.460;2023-05-17T10:22:20;102528.38;;;18.53;43.35
58473;BME280;44775;51.564;5.460;2023-05-17T10:24:47;102519.75;;;18.95;42.77
58473;BME280;44775;51.564;5.460;2023-05-17T10:27:13;102515.28;;;18.87;46.77
58473;BME280;44775;51.564;5.460;2023-05-17T10:29:40;102513.53;;;19.09;44.80
58473;BME280;44775;51.564;5.460;2023-05-17T10:32:06;102518.44;;;19.58;36.89
58473;BME280;44775;51.564;5.460;2023-05-17T10:34:37;102519.00;;;20.20;43.37
58473;BME280;44775;51.564;5.460;2023-05-17T10:37:03;102525.25;;;19.99;35.06
58473;BME280;44775;51.564;5.460;2023-05-17T10:39:30;102524.56;;;20.12;33.57
58473;BME280;44775;51.564;5.460;2023-05-17T10:41:59;102506.72;;;19.88;43.41
58473;BME280;44775;51.564;5.460;2023-05-17T10:44:26;102513.59;;;19.69;33.97
58473;BME280;44775;51.564;5.460;2023-05-17T10:46:56;102505.88;;;20.02;43.42
58473;BME280;44775;51.564;5.460;2023-05-17T10:49:32;102505.97;;;20.51;33.58
58473;BME280;44775;51.564;5.460;2023-05-17T10:52:10;102505.44;;;20.41;39.01
58473;BME280;44775;51.564;5.460;2023-05-17T10:54:40;102513.88;;;20.89;32.40
58473;BME280;44775;51.564;5.460;2023-05-17T10:57:06;102498.22;;;20.70;41.66
58473;BME280;44775;51.564;5.460;2023-05-17T10:59:32;102493.78;;;20.62;42.45
58473;BME280;44775;51.564;5.460;2023-05-17T11:02:04;102483.59;;;20.71;39.75
58473;BME280;44775;51.564;5.460;2023-05-17T11:12:40;102488.94;;;21.14;35.96
58473;BME280;44775;51.564;5.460;2023-05-17T11:15:08;102500.66;;;21.42;32.74
58473;BME280;44775;51.564;5.460;2023-05-17T11:25:22;102487.31;;;20.63;42.92
58473;BME280;44775;51.564;5.460;2023-05-17T11:27:49;102502.13;;;20.24;44.00
58473;BME280;44775;51.564;5.460;2023-05-17T11:30:26;102476.81;;;20.39;42.29
58473;BME280;44775;51.564;5.460;2023-05-17T11:33:03;102499.41;;;20.03;42.36
58473;BME280;44775;51.564;5.460;2023-05-17T11:35:34;102478.94;;;20.65;40.43
58473;BME280;44775;51.564;5.460;2023-05-17T11:38:20;102481.34;;;20.74;38.49
58473;BME280;44775;51.564;5.460;2023-05-17T11:40:48;102479.97;;;20.21;43.21
58473;BME280;44775;51.564;5.460;2023-05-17T11:43:24;102489.41;;;20.25;36.57
58473;BME280;44775;51.564;5.460;2023-05-17T11:45:50;102487.03;;;20.58;39.69
58473;BME280;44775;51.564;5.460;2023-05-17T11:48:40;102495.13;;;20.73;38.82
58473;BME280;44775;51.564;5.460;2023-05-17T11:51:06;102480.31;;;21.04;36.21
58473;BME280;44775;51.564;5.460;2023-05-17T11:53:32;102482.91;;;20.62;41.72
58473;BME280;44775;51.564;5.460;2023-05-17T11:56:01;102487.47;;;20.62;41.20
58473;BME280;44775;51.564;5.460;2023-05-17T11:58:28;102484.53;;;20.57;41.60
58473;BME280;44775;51.564;5.460;2023-05-17T12:00:56;102474.41;;;20.72;38.90
58473;BME280;44775;51.564;5.460;2023-05-17T12:03:29;102473.63;;;20.78;42.34
58473;BME280;44775;51.564;5.460;2023-05-17T12:06:09;102478.38;;;20.97;42.01
58473;BME280;44775;51.564;5.460;2023-05-17T12:08:38;102486.81;;;20.81;42.12
58473;BME280;44775;51.564;5.460;2023-05-17T12:11:07;102476.94;;;21.02;39.43
58473;BME280;44775;51.564;5.460;2023-05-17T12:13:34;102480.09;;;21.33;36.13
58473;BME280;44775;51.564;5.460;2023-05-17T12:16:02;102479.44;;;21.73;40.06
58473;BME280;44775;51.564;5.460;2023-05-17T12:18:43;102479.00;;;21.62;39.21
58473;BME280;44775;51.564;5.460;2023-05-17T12:21:11;102489.75;;;21.42;31.80
58473;BME280;44775;51.564;5.460;2023-05-17T12:23:38;102482.50;;;21.98;37.53
58473;BME280;44775;51.564;5.460;2023-05-17T12:26:09;102478.09;;;21.49;39.17
58473;BME280;44775;51.564;5.460;2023-05-17T12:28:37;102465.78;;;20.90;41.80
58473;BME280;44775;51.564;5.460;2023-05-17T12:31:04;102462.47;;;20.66;42.57
58473;BME280;44775;51.564;5.460;2023-05-17T12:33:35;102478.59;;;20.96;40.05
58473;BME280;44775;51.564;5.460;2023-05-17T12:36:02;102476.28;;;21.28;34.51
58473;BME280;44775;51.564;5.460;2023-05-17T12:38:30;102481.53;;;21.64;32.69
58473;BME280;44775;51.564;5.460;2023-05-17T12:41:04;102478.03;;;21.35;37.85
58473;BME280;44775;51.564;5.460;2023-05-17T12:43:33;102461.84;;;20.99;40.59
58473;BME280;44775;51.564;5.460;2023-05-17T12:46:10;102475.00;;;20.46;43.05
58473;BME280;44775;51.564;5.460;2023-05-17T12:48:40;102477.66;;;20.61;40.53
58473;BME280;44775;51.564;5.460;2023-05-17T12:51:07;102480.19;;;20.62;41.44
58473;BME280;44775;51.564;5.460;2023-05-17T12:53:37;102475.13;;;20.81;36.04
58473;BME280;44775;51.564;5.460;2023-05-17T12:56:03;102479.97;;;21.13;40.89
58473;BME280;44775;51.564;5.460;2023-05-17T12:58:28;102476.31;;;20.99;38.63
58473;BME280;44775;51.564;5.460;2023-05-17T13:01:01;102484.19;;;21.22;40.51
58473;BME280;44775;51.564;5.460;2023-05-17T13:03:27;102479.13;;;21.13;32.74
58473;BME280;44775;51.564;5.460;2023-05-17T13:06:03;102485.09;;;21.30;30.64
58473;BME280;44775;51.564;5.460;2023-05-17T13:08:31;102485.34;;;21.35;30.67
58473;BME280;44775;51.564;5.460;2023-05-17T13:11:13;102478.19;;;21.68;36.71
58473;BME280;44775;51.564;5.460;2023-05-17T13:13:39;102474.00;;;21.73;39.44